sensor_id;sensor_type;location;lat;lon;timestamp;pressure;altitude;pressure_sealevel;temperature;humidity
61674;BME280;47573;43.832;5.974;2022-09-09T10:12:06;95316.81;;;24.88;50.12
61674;BME280;47573;43.832;5.974;2022-09-09T10:17:22;95315.97;;;25.30;48.35
61674;BME280;47573;43.832;5.974;2022-09-09T10:22:26;95305.69;;;25.69;47.80
61674;BME280;47573;43.832;5.974;2022-09-09T10:27:34;95297.97;;;25.93;46.34
61674;BME280;47573;43.832;5.974;2022-09-09T10:32:39;95295.69;;;26.16;45.62
61674;BME280;47573;43.832;5.974;2022-09-09T10:37:53;95299.31;;;26.27;45.42
61674;BME280;47573;43.832;5.974;2022-09-09T10:43:07;95293.44;;;26.50;44.33
61674;BME280;47573;43.832;5.974;2022-09-09T10:48:20;95292.97;;;26.63;44.58
61674;BME280;47573;43.832;5.974;2022-09-09T10:53:35;95280.41;;;26.72;43.97
61674;BME280;47573;43.832;5.974;2022-09-09T10:58:42;95276.09;;;26.86;43.74
61674;BME280;47573;43.832;5.974;2022-09-09T11:03:48;95270.66;;;26.96;43.19
61674;BME280;47573;43.832;5.974;2022-09-09T11:08:50;95264.69;;;27.15;42.25
61674;BME280;47573;43.832;5.974;2022-09-09T11:13:57;95260.81;;;27.16;42.40
61674;BME280;47573;43.832;5.974;2022-09-09T11:19:02;95250.97;;;27.25;42.84
61674;BME280;47573;43.832;5.974;2022-09-09T11:24:10;95248.84;;;27.37;41.89
61674;BME280;47573;43.832;5.974;2022-09-09T11:29:31;95243.34;;;27.47;42.11
61674;BME280;47573;43.832;5.974;2022-09-09T11:34:42;95247.22;;;27.76;40.87
61674;BME280;47573;43.832;5.974;2022-09-09T11:45:15;95247.22;;;27.76;39.63
61674;BME280;47573;43.832;5.974;2022-09-09T11:50:31;95249.13;;;27.50;41.85
61674;BME280;47573;43.832;5.974;2022-09-09T11:55:33;95249.94;;;27.51;41.13
61674;BME280;47573;43.832;5.974;2022-09-09T12:00:37;95256.53;;;27.45;41.07
61674;BME280;47573;43.832;5.974;2022-09-09T12:05:40;95252.69;;;27.46;41.03
61674;BME280;47573;43.832;5.974;2022-09-09T12:10:53;95249.13;;;27.60;40.72
61674;BME280;47573;43.832;5.974;2022-09-09T12:15:59;95248.84;;;27.47;40.96
61674;BME280;47573;43.832;5.974;2022-09-09T12:21:05;95249.94;;;27.51;41.39
61674;BME280;47573;43.832;5.974;2022-09-09T12:26:25;95237.34;;;27.60;40.33
61674;BME280;47573;43.832;5.974;2022-09-09T12:31:34;95242.00;;;27.59;40.95
61674;BME280;47573;43.832;5.974;2022-09-09T12:36:36;95246.66;;;27.54;41.02
61674;BME280;47573;43.832;5.974;2022-09-09T12:41:37;95233.47;;;27.51;40.48
61674;BME280;47573;43.832;5.974;2022-09-09T12:46:41;95229.13;;;27.65;40.82
61674;BME280;47573;43.832;5.974;2022-09-09T12:51:43;95229.66;;;27.67;40.98
61674;BME280;47573;43.832;5.974;2022-09-09T12:56:46;95226.38;;;27.60;40.64
61674;BME280;47573;43.832;5.974;2022-09-09T13:01:55;95223.63;;;27.65;40.84
61674;BME280;47573;43.832;5.974;2022-09-09T13:07:05;95212.66;;;27.60;42.64
61674;BME280;47573;43.832;5.974;2022-09-09T13:12:06;95206.09;;;27.61;42.81
61674;BME280;47573;43.832;5.974;2022-09-09T13:17:19;95205.00;;;27.57;43.47
61674;BME280;47573;43.832;5.974;2022-09-09T13:22:22;95197.28;;;27.69;43.29
61674;BME280;47573;43.832;5.974;2022-09-09T13:27:29;95197.00;;;27.70;43.66
61674;BME280;47573;43.832;5.974;2022-09-09T13:32:32;95202.19;;;27.82;43.75
61674;BME280;47573;43.832;5.974;2022-09-09T13:37:34;95204.97;;;27.72;43.86
61674;BME280;47573;43.832;5.974;2022-09-09T13:42:39;95196.44;;;27.78;43.27
61674;BME280;47573;43.832;5.974;2022-09-09T13:47:42;95194.50;;;27.84;43.03
61674;BME280;47573;43.832;5.974;2022-09-09T13:52:42;95183.56;;;28.04;42.23
61674;BME280;47573;43.832;5.974;2022-09-09T13:57:51;95195.63;;;27.78;43.49
61674;BME280;47573;43.832;5.974;2022-09-09T14:02:53;95195.63;;;27.88;43.36
61674;BME280;47573;43.832;5.974;2022-09-09T14:07:53;95194.50;;;27.84;43.46
61674;BME280;47573;43.832;5.974;2022-09-09T14:12:54;95200.28;;;27.88;43.62
61674;BME280;47573;43.832;5.974;2022-09-09T14:17:56;95188.47;;;27.87;43.77
61674;BME280;47573;43.832;5.974;2022-09-09T14:22:56;95182.16;;;27.86;43.89
61674;BME280;47573;43.832;5.974;2022-09-09T14:27:57;95170.09;;;27.82;43.97
61674;BME280;47573;43.832;5.974;2022-09-09T14:32:59;95164.91;;;27.86;43.78
61674;BME280;47573;43.832;5.974;2022-09-09T14:37:59;95161.59;;;27.94;43.78
61674;BME280;47573;43.832;5.974;2022-09-09T14:43:00;95168.72;;;27.95;43.83
61674;BME280;47573;43.832;5.974;2022-09-09T14:48:03;95174.22;;;27.85;43.96
61674;BME280;47573;43.832;5.974;2022-09-09T14:53:03;95176.97;;;27.90;43.94
61674;BME280;47573;43.832;5.974;2022-09-09T14:58:04;95175.56;;;27.93;43.88
61674;BME280;47573;43.832;5.974;2022-09-09T15:03:06;95169.28;;;28.02;43.79
61674;BME280;47573;43.832;5.974;2022-09-09T15:08:06;95171.75;;;28.04;43.83
61674;BME280;47573;43.832;5.974;2022-09-09T15:13:07;95161.03;;;27.87;44.09
61674;BME280;47573;43.832;5.974;2022-09-09T15:18:08;95169.00;;;27.88;44.03
61674;BME280;47573;43.832;5.974;2022-09-09T15:23:09;95170.41;;;27.96;44.05
61674;BME280;47573;43.832;5.974;2022-09-09T15:28:09;95163.25;;;27.85;44.04
61674;BME280;47573;43.832;5.974;2022-09-09T15:33:11;95169.84;;;27.79;44.03
61674;BME280;47573;43.832;5.974;2022-09-09T15:38:12;95166.53;;;27.87;43.85
61674;BME280;47573;43.832;5.974;2022-09-09T15:43:12;95167.06;;;27.94;43.73
61674;BME280;47573;43.832;5.974;2022-09-09T15:48:14;95162.16;;;27.96;43.02
61674;BME280;47573;43.832;5.974;2022-09-09T15:53:14;95164.34;;;27.99;43.32
61674;BME280;47573;43.832;5.974;2022-09-09T15:58:15;95156.34;;;28.08;43.21
61674;BME280;47573;43.832;5.974;2022-09-09T16:03:17;95167.06;;;27.89;43.33
61674;BME280;47573;43.832;5.974;2022-09-09T16:08:17;95164.34;;;27.89;43.43
61674;BME280;47573;43.832;5.974;2022-09-09T16:13:18;95159.97;;;27.83;43.54
61674;BME280;47573;43.832;5.974;2022-09-09T16:18:20;95172.56;;;27.94;42.97
61674;BME280;47573;43.832;5.974;2022-09-09T16:23:20;95170.41;;;27.96;43.19
61674;BME280;47573;43.832;5.974;2022-09-09T16:28:21;95166.81;;;27.85;42.82
61674;BME280;47573;43.832;5.974;2022-09-09T16:33:23;95165.97;;;27.80;41.55
61674;BME280;47573;43.832;5.974;2022-09-09T16:38:24;95161.59;;;27.74;41.11
61674;BME280;47573;43.832;5.974;2022-09-09T16:43:24;95169.28;;;27.82;41.50
61674;BME280;47573;43.832;5.974;2022-09-09T16:48:30;95179.16;;;27.78;41.12
61674;BME280;47573;43.832;5.974;2022-09-09T16:53:31;95180.25;;;27.82;41.01
61674;BME280;47573;43.832;5.974;2022-09-09T16:58:32;95187.13;;;27.79;42.46
61674;BME280;47573;43.832;5.974;2022-09-09T17:03:34;95186.31;;;27.69;41.40
61674;BME280;47573;43.832;5.974;2022-09-09T17:08:35;95187.41;;;27.73;41.73
61674;BME280;47573;43.832;5.974;2022-09-09T17:13:35;95193.44;;;27.80;41.41
61674;BME280;47573;43.832;5.974;2022-09-09T17:18:37;95194.00;;;27.77;41.17
61674;BME280;47573;43.832;5.974;2022-09-09T17:23:38;95193.47;;;27.65;41.07
61674;BME280;47573;43.832;5.974;2022-09-09T17:28:39;95199.50;;;27.67;41.57
61674;BME280;47573;43.832;5.974;2022-09-09T17:33:43;95200.59;;;27.71;41.61
61674;BME280;47573;43.832;5.974;2022-09-09T17:38:44;95195.66;;;27.58;41.12
61674;BME280;47573;43.832;5.974;2022-09-09T17:43:46;95200.03;;;27.49;41.00
61674;BME280;47573;43.832;5.974;2022-09-09T17:48:50;95200.03;;;27.44;41.09
61674;BME280;47573;43.832;5.974;2022-09-09T17:53:52;95200.03;;;27.44;41.66
61674;BME280;47573;43.832;5.974;2022-09-09T17:58:53;95203.88;;;27.38;41.34
61674;BME280;47573;43.832;5.974;2022-09-09T18:03:55;95201.13;;;27.48;41.80
61674;BME280;47573;43.832;5.974;2022-09-09T18:08:58;95190.44;;;27.36;42.28
61674;BME280;47573;43.832;5.974;2022-09-09T18:14:01;95190.72;;;27.40;42.29
61674;BME280;47573;43.832;5.974;2022-09-09T18:19:06;95191.81;;;27.39;42.67
61674;BME280;47573;43.832;5.974;2022-09-09T18:24:08;95189.03;;;27.29;43.14
61674;BME280;47573;43.832;5.974;2022-09-09T18:29:10;95184.13;;;27.41;42.56
61674;BME280;47573;43.832;5.974;2022-09-09T18:34:14;95190.19;;;27.38;42.94
61674;BME280;47573;43.832;5.974;2022-09-09T18:39:17;95190.16;;;27.48;43.12
61674;BME280;47573;43.832;5.974;2022-09-09T18:44:19;95203.31;;;27.51;42.57
61674;BME280;47573;43.832;5.974;2022-09-09T18:49:22;95203.25;;;27.05;43.20
61674;BME280;47573;43.832;5.974;2022-09-09T18:54:25;95214.22;;;27.16;42.93
61674;BME280;47573;43.832;5.974;2022-09-09T18:59:26;95227.63;;;26.97;42.91
61674;BME280;47573;43.832;5.974;2022-09-09T19:04:29;95238.88;;;27.00;43.34
61674;BME280;47573;43.832;5.974;2022-09-09T19:09:31;95234.97;;;26.76;43.56
61674;BME280;47573;43.832;5.974;2022-09-09T19:14:32;95246.25;;;26.95;43.64
61674;BME280;47573;43.832;5.974;2022-09-09T19:19:34;95254.47;;;26.90;43.88
61674;BME280;47573;43.832;5.974;2022-09-09T19:24:34;95257.22;;;26.90;43.82
61674;BME280;47573;43.832;5.974;2022-09-09T19:29:35;95267.88;;;26.81;44.09
61674;BME280;47573;43.832;5.974;2022-09-09T19:34:37;95267.22;;;26.64;44.23
61674;BME280;47573;43.832;5.974;2022-09-09T19:39:38;95280.41;;;26.72;43.95
61674;BME280;47573;43.832;5.974;2022-09-09T19:44:38;95277.91;;;26.71;44.15
61674;BME280;47573;43.832;5.974;2022-09-09T19:49:40;95284.16;;;26.56;44.44
61674;BME280;47573;43.832;5.974;2022-09-09T19:54:41;95281.38;;;26.46;44.55
61674;BME280;47573;43.832;5.974;2022-09-09T19:59:41;95287.69;;;26.47;44.63
61674;BME280;47573;43.832;5.974;2022-09-09T20:04:43;95290.75;;;26.60;44.77
61674;BME280;47573;43.832;5.974;2022-09-09T20:09:44;95295.09;;;26.56;44.59
61674;BME280;47573;43.832;5.974;2022-09-09T20:14:44;95303.00;;;26.43;44.91
61674;BME280;47573;43.832;5.974;2022-09-09T20:19:46;95298.84;;;26.40;45.07
61674;BME280;47573;43.832;5.974;2022-09-09T20:24:47;95299.91;;;26.34;44.97
61674;BME280;47573;43.832;5.974;2022-09-09T20:29:47;95301.03;;;26.38;45.03
61674;BME280;47573;43.832;5.974;2022-09-09T20:34:49;95302.84;;;26.22;45.62
61674;BME280;47573;43.832;5.974;2022-09-09T20:39:49;95290.59;;;26.35;45.26
61674;BME280;47573;43.832;5.974;2022-09-09T20:44:50;95295.50;;;26.28;45.55
61674;BME280;47573;43.832;5.974;2022-09-09T20:49:52;95295.06;;;26.46;45.37
61674;BME280;47573;43.832;5.974;2022-09-09T20:54:52;95306.03;;;26.51;45.75
61674;BME280;47573;43.832;5.974;2022-09-09T20:59:53;95306.84;;;26.52;45.76
61674;BME280;47573;43.832;5.974;2022-09-09T21:04:54;95308.47;;;26.48;45.79
61674;BME280;47573;43.832;5.974;2022-09-09T21:09:55;95309.31;;;26.53;45.79
61674;BME280;47573;43.832;5.974;2022-09-09T21:14:55;95307.09;;;26.45;46.49
61674;BME280;47573;43.832;5.974;2022-09-09T21:19:57;95302.16;;;26.42;46.64
61674;BME280;47573;43.832;5.974;2022-09-09T21:24:58;95299.59;;;26.30;46.31
61674;BME280;47573;43.832;5.974;2022-09-09T21:29:58;95304.34;;;26.40;46.80
61674;BME280;47573;43.832;5.974;2022-09-09T21:35:02;95298.25;;;26.33;46.39
61674;BME280;47573;43.832;5.974;2022-09-09T21:40:04;95297.19;;;26.39;46.80
61674;BME280;47573;43.832;5.974;2022-09-09T21:45:05;95298.31;;;26.43;46.65
61674;BME280;47573;43.832;5.974;2022-09-09T21:50:08;95296.13;;;26.40;46.91
61674;BME280;47573;43.832;5.974;2022-09-09T21:55:08;95298.03;;;26.40;46.80
61674;BME280;47573;43.832;5.974;2022-09-09T22:00:11;95297.75;;;26.88;46.15
61674;BME280;47573;43.832;5.974;2022-09-09T22:05:13;95294.19;;;26.87;46.24
61674;BME280;47573;43.832;5.974;2022-09-09T22:10:14;95283.25;;;26.97;46.23
61674;BME280;47573;43.832;5.974;2022-09-09T22:15:14;95296.41;;;26.95;46.39
61674;BME280;47573;43.832;5.974;2022-09-09T22:20:16;95295.31;;;27.01;46.63
61674;BME280;47573;43.832;5.974;2022-09-09T22:25:17;95296.44;;;27.05;46.59
61674;BME280;47573;43.832;5.974;2022-09-09T22:30:17;95290.44;;;27.08;46.60
61674;BME280;47573;43.832;5.974;2022-09-09T22:35:19;95284.69;;;27.15;46.56
61674;BME280;47573;43.832;5.974;2022-09-09T22:40:20;95285.50;;;27.11;46.62
61674;BME280;47573;43.832;5.974;2022-09-09T22:45:20;95289.88;;;27.12;46.54
61674;BME280;47573;43.832;5.974;2022-09-09T22:50:22;95285.22;;;27.07;46.86
61674;BME280;47573;43.832;5.974;2022-09-09T22:55:22;95294.28;;;27.23;46.40
61674;BME280;47573;43.832;5.974;2022-09-09T23:00:23;95285.25;;;27.22;46.67
61674;BME280;47573;43.832;5.974;2022-09-09T23:05:26;95276.72;;;27.14;46.67
61674;BME280;47573;43.832;5.974;2022-09-09T23:10:26;95292.63;;;27.17;46.83
61674;BME280;47573;43.832;5.974;2022-09-09T23:15:27;95295.09;;;27.18;46.89
61674;BME280;47573;43.832;5.974;2022-09-09T23:20:29;95288.25;;;27.11;46.95
61674;BME280;47573;43.832;5.974;2022-09-09T23:25:30;95294.81;;;27.04;47.02
61674;BME280;47573;43.832;5.974;2022-09-09T23:30:30;95289.59;;;27.08;47.11
61674;BME280;47573;43.832;5.974;2022-09-09T23:35:32;95302.22;;;27.09;47.22
61674;BME280;47573;43.832;5.974;2022-09-09T23:40:33;95288.25;;;27.21;46.71
61674;BME280;47573;43.832;5.974;2022-09-09T23:45:34;95294.56;;;27.21;47.04
61674;BME280;47573;43.832;5.974;2022-09-09T23:50:35;95294.81;;;27.20;47.35
61674;BME280;47573;43.832;5.974;2022-09-09T23:55:36;95300.31;;;27.15;47.35
